Time;durP1;ratioP1;P1;durP2;ratioP2;P2;SDS_P1;SDS_P2;PMS_P1;PMS_P2;Temp;Humidity;BMP_temperature;BMP_pressure;BME280_temperature;BME280_humidity;BME280_pressure;Samples;Min_cycle;Max_cycle;Signal;HPM_P1;HPM_P2
2023/04/08 00:00:18;;;;;;;0.85;0.80;;;;;;;;;;5043250;28;20106;-41
2023/04/08 00:02:44;;;;;;;0.60;0.55;;;;;;;;;;5046907;28;20035;-42
2023/04/08 00:05:10;;;;;;;0.90;0.73;;;;;;;;;;5044334;28;20040;-48
2023/04/08 00:07:36;;;;;;;2.83;1.05;;;;;;;;;;5048684;28;20029;-49
2023/04/08 00:10:01;;;;;;;2.70;1.10;;;;;;;;;;5045323;28;20104;-41
2023/04/08 00:12:27;;;;;;;0.82;0.70;;;;;;;;;;5042995;28;20033;-41
2023/04/08 00:14:52;;;;;;;1.60;0.77;;;;;;;;;;5042994;28;20522;-41
2023/04/08 00:17:18;;;;;;;1.73;0.80;;;;;;;;;;5046186;28;20049;-41
2023/04/08 00:19:43;;;;;;;2.28;0.80;;;;;;;;;;5048735;28;20025;-44
2023/04/08 00:22:09;;;;;;;0.80;0.80;;;;;;;;;;5046501;28;20140;-44
2023/04/08 00:24:35;;;;;;;1.80;1.00;;;;;;;;;;5046053;28;20036;-42
2023/04/08 00:27:01;;;;;;;1.48;1.02;;;;;;;;;;5046059;28;20051;-41
2023/04/08 00:29:27;;;;;;;5.15;0.93;;;;;;;;;;5047834;28;20025;-42
2023/04/08 00:31:53;;;;;;;3.50;1.23;;;;;;;;;;5046634;28;20037;-41
2023/04/08 00:34:18;;;;;;;1.13;0.80;;;;;;;;;;5043935;28;20060;-46
2023/04/08 00:36:45;;;;;;;1.02;0.73;;;;;;;;;;5042771;28;20033;-48
2023/04/08 00:39:10;;;;;;;2.85;0.98;;;;;;;;;;5046356;28;20036;-41
2023/04/08 00:41:35;;;;;;;0.80;0.80;;;;;;;;;;5052293;28;20083;-44
2023/04/08 00:44:01;;;;;;;1.75;0.73;;;;;;;;;;5062829;28;20115;-47
2023/04/08 00:46:27;;;;;;;1.90;0.60;;;;;;;;;;5064253;28;20033;-46
2023/04/08 00:48:53;;;;;;;1.65;1.05;;;;;;;;;;5061101;28;20108;-44
2023/04/08 00:51:20;;;;;;;0.82;0.68;;;;;;;;;;5061625;28;20385;-44
2023/04/08 00:53:45;;;;;;;1.00;0.80;;;;;;;;;;5054355;28;20120;-49
2023/04/08 00:56:11;;;;;;;1.52;0.75;;;;;;;;;;5062707;28;20151;-40
2023/04/08 00:58:38;;;;;;;1.70;0.80;;;;;;;;;;5058600;28;20494;-41
2023/04/08 01:01:14;;;;;;;1.58;0.80;;;;;;;;;;5060128;28;20041;-40
2023/04/08 01:04:04;;;;;;;1.13;0.80;;;;;;;;;;5059469;28;20519;-49
2023/04/08 01:06:58;;;;;;;1.40;0.85;;;;;;;;;;5045298;28;20098;-43
2023/04/08 01:09:28;;;;;;;1.42;1.33;;;;;;;;;;5041919;28;20072;-44
2023/04/08 01:11:55;;;;;;;1.58;0.80;;;;;;;;;;5044700;28;20044;-42
2023/04/08 01:14:25;;;;;;;1.92;1.10;;;;;;;;;;5038941;28;20473;-41
2023/04/08 01:16:54;;;;;;;3.03;0.80;;;;;;;;;;5044793;28;20099;-48
2023/04/08 01:19:46;;;;;;;1.15;0.88;;;;;;;;;;5039622;28;20029;-46
2023/04/08 01:22:36;;;;;;;0.93;0.93;;;;;;;;;;5032417;28;20132;-43
2023/04/08 01:25:07;;;;;;;1.05;0.90;;;;;;;;;;5038005;28;20501;-47
2023/04/08 01:27:34;;;;;;;1.55;0.82;;;;;;;;;;5045354;28;20128;-46
2023/04/08 01:30:02;;;;;;;1.52;1.10;;;;;;;;;;5046249;28;20161;-45
2023/04/08 01:32:29;;;;;;;0.90;0.85;;;;;;;;;;5059300;28;20093;-42
2023/04/08 01:34:56;;;;;;;1.70;0.95;;;;;;;;;;5057566;28;20059;-44
2023/04/08 01:37:24;;;;;;;1.98;1.00;;;;;;;;;;5061474;28;20052;-44
2023/04/08 01:39:51;;;;;;;3.88;1.13;;;;;;;;;;5055338;28;20693;-49
2023/04/08 01:42:16;;;;;;;1.23;1.13;;;;;;;;;;5059227;28;20067;-44
2023/04/08 01:44:42;;;;;;;2.30;0.75;;;;;;;;;;5056552;28;20481;-46
2023/04/08 01:47:10;;;;;;;1.10;0.98;;;;;;;;;;5061058;28;20068;-45
2023/04/08 01:49:36;;;;;;;4.63;1.17;;;;;;;;;;5066487;28;20120;-46
2023/04/08 01:52:03;;;;;;;1.33;0.95;;;;;;;;;;5058479;28;20506;-45
2023/04/08 01:54:29;;;;;;;3.70;1.33;;;;;;;;;;5054147;28;20041;-50
2023/04/08 01:56:57;;;;;;;1.20;1.10;;;;;;;;;;5059864;28;20040;-44
2023/04/08 01:59:27;;;;;;;2.17;1.10;;;;;;;;;;5056521;28;20377;-47
2023/04/08 02:01:53;;;;;;;2.88;1.52;;;;;;;;;;5059544;28;20128;-43
2023/04/08 02:04:18;;;;;;;0.85;0.85;;;;;;;;;;5060711;28;20503;-43
2023/04/08 02:06:44;;;;;;;3.80;1.23;;;;;;;;;;5054730;28;20040;-47
2023/04/08 02:09:10;;;;;;;1.55;1.10;;;;;;;;;;5062109;28;20025;-43
2023/04/08 02:11:35;;;;;;;1.20;1.10;;;;;;;;;;5061569;28;20497;-42
2023/04/08 02:14:00;;;;;;;3.00;1.40;;;;;;;;;;5057894;28;20044;-45
2023/04/08 02:16:38;;;;;;;1.70;1.08;;;;;;;;;;5063046;28;20041;-48
2023/04/08 02:19:30;;;;;;;1.13;0.93;;;;;;;;;;5060152;28;20047;-41
2023/04/08 02:22:05;;;;;;;1.58;1.00;;;;;;;;;;5059381;28;20041;-41
2023/04/08 02:24:32;;;;;;;3.33;1.17;;;;;;;;;;5061769;28;20016;-41
2023/04/08 02:26:59;;;;;;;3.53;1.05;;;;;;;;;;5063681;28;20512;-41
2023/04/08 02:29:27;;;;;;;1.90;0.95;;;;;;;;;;5062293;28;20473;-40
2023/04/08 02:31:54;;;;;;;1.85;1.20;;;;;;;;;;5064726;28;20044;-41
2023/04/08 02:34:20;;;;;;;1.42;0.98;;;;;;;;;;5061480;28;20469;-41
2023/04/08 02:36:46;;;;;;;3.03;1.10;;;;;;;;;;5046839;28;20405;-40
2023/04/08 02:39:12;;;;;;;2.25;1.30;;;;;;;;;;5040776;28;20037;-42
2023/04/08 02:41:38;;;;;;;3.78;0.90;;;;;;;;;;5043652;28;20033;-43
2023/04/08 02:44:03;;;;;;;1.63;1.20;;;;;;;;;;5045958;28;20036;-40
2023/04/08 02:46:28;;;;;;;1.75;1.00;;;;;;;;;;5046255;28;20044;-40
2023/04/08 02:48:54;;;;;;;1.58;1.10;;;;;;;;;;5050766;28;20030;-39
2023/04/08 02:51:19;;;;;;;2.00;1.20;;;;;;;;;;5042050;28;20095;-43
2023/04/08 02:53:45;;;;;;;1.48;1.10;;;;;;;;;;5045213;28;20036;-41
2023/04/08 02:56:10;;;;;;;1.10;1.00;;;;;;;;;;5044881;28;20045;-40
2023/04/08 02:58:36;;;;;;;2.47;1.10;;;;;;;;;;5044546;28;20484;-40
2023/04/08 03:01:01;;;;;;;1.40;1.20;;;;;;;;;;5055610;28;20049;-40
2023/04/08 03:03:28;;;;;;;2.38;1.23;;;;;;;;;;5062586;28;20024;-41
2023/04/08 03:05:54;;;;;;;1.50;1.30;;;;;;;;;;5064339;28;20044;-40
2023/04/08 03:08:20;;;;;;;0.98;0.88;;;;;;;;;;5066162;28;20032;-42
2023/04/08 03:10:45;;;;;;;1.27;0.90;;;;;;;;;;5058743;28;20055;-40
2023/04/08 03:13:11;;;;;;;2.75;1.10;;;;;;;;;;5049336;28;20083;-41
2023/04/08 03:15:36;;;;;;;1.67;1.45;;;;;;;;;;5050046;28;20045;-40
2023/04/08 03:18:02;;;;;;;2.17;1.10;;;;;;;;;;5065311;28;20516;-41
2023/04/08 03:20:27;;;;;;;1.45;1.23;;;;;;;;;;5056826;28;20051;-41
2023/04/08 03:22:53;;;;;;;2.30;1.30;;;;;;;;;;5047375;28;20424;-43
2023/04/08 03:25:18;;;;;;;1.77;1.20;;;;;;;;;;5038940;28;20029;-40
2023/04/08 03:27:44;;;;;;;1.42;1.20;;;;;;;;;;5046173;28;20045;-40
2023/04/08 03:30:09;;;;;;;1.88;1.17;;;;;;;;;;5043179;28;20036;-40
2023/04/08 03:32:35;;;;;;;0.95;0.95;;;;;;;;;;5057158;28;20047;-40
2023/04/08 03:35:00;;;;;;;1.20;1.05;;;;;;;;;;5056198;28;20405;-40
2023/04/08 03:37:26;;;;;;;2.47;1.38;;;;;;;;;;5046195;28;20072;-39
2023/04/08 03:39:52;;;;;;;2.75;1.35;;;;;;;;;;5047277;28;20059;-42
2023/04/08 03:42:17;;;;;;;2.10;1.10;;;;;;;;;;5048063;28;20055;-42
2023/04/08 03:44:42;;;;;;;1.80;1.20;;;;;;;;;;5046566;28;20029;-41
2023/04/08 03:47:08;;;;;;;3.95;1.00;;;;;;;;;;5056951;28;20041;-40
2023/04/08 03:49:33;;;;;;;2.28;1.38;;;;;;;;;;5062139;28;20074;-40
2023/04/08 03:51:58;;;;;;;4.28;1.40;;;;;;;;;;5048531;28;20106;-40
2023/04/08 03:54:24;;;;;;;1.80;1.10;;;;;;;;;;5048644;28;20033;-40
2023/04/08 03:56:49;;;;;;;0.93;0.93;;;;;;;;;;5058566;28;20044;-40
2023/04/08 03:59:15;;;;;;;2.70;1.50;;;;;;;;;;5058324;28;20032;-41
2023/04/08 04:01:40;;;;;;;1.45;1.30;;;;;;;;;;5044902;28;20037;-41
2023/04/08 04:04:06;;;;;;;1.15;1.05;;;;;;;;;;5041045;28;20029;-41
2023/04/08 04:06:31;;;;;;;1.02;0.93;;;;;;;;;;5045589;28;20128;-42
2023/04/08 04:08:56;;;;;;;1.13;1.02;;;;;;;;;;5046581;28;20489;-40
2023/04/08 04:11:22;;;;;;;2.60;1.60;;;;;;;;;;5047497;28;20140;-41
2023/04/08 04:13:47;;;;;;;1.85;1.50;;;;;;;;;;5047558;28;20045;-40
2023/04/08 04:16:13;;;;;;;2.47;1.63;;;;;;;;;;5053051;28;20029;-41
2023/04/08 04:18:38;;;;;;;1.58;1.35;;;;;;;;;;5058157;28;20057;-40
2023/04/08 04:21:07;;;;;;;2.83;1.58;;;;;;;;;;5065074;28;20039;-40
2023/04/08 04:23:32;;;;;;;1.05;1.02;;;;;;;;;;5059981;28;20052;-40
2023/04/08 04:25:57;;;;;;;1.90;1.50;;;;;;;;;;5053484;28;20069;-40
2023/04/08 04:28:23;;;;;;;1.58;1.48;;;;;;;;;;5040178;28;20451;-40
2023/04/08 04:30:48;;;;;;;2.13;1.42;;;;;;;;;;5037877;28;20539;-40
2023/04/08 04:33:14;;;;;;;1.33;1.25;;;;;;;;;;5047304;28;20036;-40
2023/04/08 04:35:39;;;;;;;1.42;1.33;;;;;;;;;;5050686;28;20516;-42
2023/04/08 04:38:09;;;;;;;1.48;1.38;;;;;;;;;;5046649;28;20035;-41
2023/04/08 04:40:35;;;;;;;3.17;1.20;;;;;;;;;;5046505;28;20056;-40
2023/04/08 04:43:01;;;;;;;1.65;1.20;;;;;;;;;;5047930;28;20528;-41
2023/04/08 04:45:26;;;;;;;1.75;1.30;;;;;;;;;;5043595;28;20052;-40
2023/04/08 04:47:52;;;;;;;2.60;1.13;;;;;;;;;;5047758;28;20061;-41
2023/04/08 04:50:17;;;;;;;3.25;1.38;;;;;;;;;;5043933;28;20754;-48
2023/04/08 04:52:43;;;;;;;1.95;1.45;;;;;;;;;;5048238;28;20448;-40
2023/04/08 04:55:08;;;;;;;2.38;1.35;;;;;;;;;;5042897;28;20436;-39
2023/04/08 04:57:34;;;;;;;1.60;1.42;;;;;;;;;;5046165;28;20029;-40
2023/04/08 04:59:59;;;;;;;2.30;1.30;;;;;;;;;;5046181;28;20057;-42
2023/04/08 05:02:24;;;;;;;2.60;1.67;;;;;;;;;;5060554;28;20135;-41
2023/04/08 05:04:52;;;;;;;1.42;1.33;;;;;;;;;;5057547;28;20041;-40
2023/04/08 05:07:18;;;;;;;2.50;1.50;;;;;;;;;;5059018;28;20457;-40
2023/04/08 05:09:43;;;;;;;10.20;1.73;;;;;;;;;;5058638;28;20056;-40
2023/04/08 05:12:08;;;;;;;1.48;1.33;;;;;;;;;;5060968;28;20131;-40
2023/04/08 05:14:34;;;;;;;1.55;1.30;;;;;;;;;;5059320;28;20578;-40
2023/04/08 05:16:59;;;;;;;4.00;1.10;;;;;;;;;;5063072;28;20045;-40
2023/04/08 05:19:25;;;;;;;1.35;1.23;;;;;;;;;;5054630;28;20641;-40
2023/04/08 05:21:50;;;;;;;2.58;1.48;;;;;;;;;;5063082;28;20049;-40
2023/04/08 05:24:15;;;;;;;4.60;1.65;;;;;;;;;;5061319;28;20024;-41
2023/04/08 05:26:41;;;;;;;2.25;1.40;;;;;;;;;;5056387;28;20033;-41
2023/04/08 05:29:06;;;;;;;1.67;1.58;;;;;;;;;;5061983;28;20025;-41
2023/04/08 05:31:32;;;;;;;1.67;1.40;;;;;;;;;;5051950;28;20025;-41
2023/04/08 05:33:57;;;;;;;3.35;1.60;;;;;;;;;;5043767;28;20044;-43
2023/04/08 05:36:22;;;;;;;2.40;1.25;;;;;;;;;;5046565;28;20033;-41
2023/04/08 05:38:48;;;;;;;1.63;1.40;;;;;;;;;;5044624;28;20429;-40
2023/04/08 05:41:13;;;;;;;2.63;1.60;;;;;;;;;;5051433;28;20072;-40
2023/04/08 05:43:39;;;;;;;2.15;1.30;;;;;;;;;;5061501;28;20027;-42
2023/04/08 05:46:10;;;;;;;2.00;1.42;;;;;;;;;;5049634;28;20533;-41
2023/04/08 05:48:36;;;;;;;2.97;1.70;;;;;;;;;;5039038;28;20508;-42
2023/04/08 05:51:02;;;;;;;1.70;1.40;;;;;;;;;;5041862;28;20049;-41
2023/04/08 05:53:27;;;;;;;1.63;1.45;;;;;;;;;;5044863;28;20059;-40
2023/04/08 05:55:53;;;;;;;2.60;1.65;;;;;;;;;;5052651;28;20067;-41
2023/04/08 05:58:18;;;;;;;1.77;1.60;;;;;;;;;;5059148;28;20504;-40
2023/04/08 06:00:44;;;;;;;1.33;1.15;;;;;;;;;;5053771;28;20449;-40
2023/04/08 06:03:09;;;;;;;2.55;1.75;;;;;;;;;;5040163;28;20025;-40
2023/04/08 06:05:34;;;;;;;1.75;1.52;;;;;;;;;;5031905;28;20037;-40
2023/04/08 06:08:00;;;;;;;1.67;1.42;;;;;;;;;;5038579;28;20493;-42
2023/04/08 06:10:25;;;;;;;6.43;1.58;;;;;;;;;;5042144;28;20044;-41
2023/04/08 06:12:51;;;;;;;3.45;1.52;;;;;;;;;;5044261;28;20429;-40
2023/04/08 06:15:16;;;;;;;3.75;1.70;;;;;;;;;;5045022;28;20513;-40
2023/04/08 06:17:42;;;;;;;3.85;1.60;;;;;;;;;;5042716;28;20025;-41
2023/04/08 06:20:10;;;;;;;2.15;1.77;;;;;;;;;;5044849;28;20017;-40
2023/04/08 06:22:37;;;;;;;3.30;1.60;;;;;;;;;;5036792;28;20022;-40
2023/04/08 06:25:02;;;;;;;3.25;1.80;;;;;;;;;;5036575;28;20179;-43
2023/04/08 06:27:27;;;;;;;3.03;2.15;;;;;;;;;;5043926;28;20107;-41
2023/04/08 06:29:54;;;;;;;6.93;2.30;;;;;;;;;;5041954;28;20367;-47
2023/04/08 06:32:20;;;;;;;4.53;2.70;;;;;;;;;;5047420;28;20040;-41
2023/04/08 06:34:46;;;;;;;5.45;3.05;;;;;;;;;;5046468;28;20382;-41
2023/04/08 06:37:11;;;;;;;5.25;3.05;;;;;;;;;;5041547;28;20040;-40
2023/04/08 06:39:36;;;;;;;7.35;3.97;;;;;;;;;;5043493;28;20017;-41
2023/04/08 06:42:02;;;;;;;6.20;4.07;;;;;;;;;;5041676;28;20064;-41
2023/04/08 06:44:27;;;;;;;15.40;5.05;;;;;;;;;;5046901;28;20056;-44
2023/04/08 06:46:52;;;;;;;6.97;4.75;;;;;;;;;;5041179;28;20048;-43
2023/04/08 06:49:18;;;;;;;11.32;5.55;;;;;;;;;;5043964;28;20158;-43
2023/04/08 06:51:43;;;;;;;12.93;5.22;;;;;;;;;;5039835;28;20033;-41
2023/04/08 06:54:11;;;;;;;9.18;5.20;;;;;;;;;;5037676;28;20106;-41
2023/04/08 06:56:37;;;;;;;9.43;4.82;;;;;;;;;;5037151;28;20080;-44
2023/04/08 06:59:03;;;;;;;7.22;4.70;;;;;;;;;;5038028;28;20047;-44
2023/04/08 07:01:28;;;;;;;10.25;4.82;;;;;;;;;;5035239;28;20040;-41
2023/04/08 07:03:54;;;;;;;9.80;4.57;;;;;;;;;;5034213;28;20490;-41
2023/04/08 07:06:19;;;;;;;7.75;4.28;;;;;;;;;;5032070;28;20481;-42
2023/04/08 07:08:45;;;;;;;5.38;3.55;;;;;;;;;;5036321;28;20025;-45
2023/04/08 07:11:11;;;;;;;3.83;2.75;;;;;;;;;;5034467;28;20600;-41
2023/04/08 07:13:36;;;;;;;3.50;2.20;;;;;;;;;;5039611;28;20108;-41
2023/04/08 07:16:01;;;;;;;3.03;2.08;;;;;;;;;;5041150;28;20126;-43
2023/04/08 07:18:28;;;;;;;2.92;1.50;;;;;;;;;;5039943;28;20021;-45
2023/04/08 07:20:55;;;;;;;5.20;1.73;;;;;;;;;;5040279;28;20457;-40
2023/04/08 07:23:20;;;;;;;3.45;1.20;;;;;;;;;;5040999;28;20029;-42
2023/04/08 07:25:47;;;;;;;2.67;0.90;;;;;;;;;;5045407;28;20112;-43
2023/04/08 07:28:12;;;;;;;2.38;1.23;;;;;;;;;;5066060;28;20031;-41
2023/04/08 07:30:37;;;;;;;3.15;1.60;;;;;;;;;;5055948;28;20045;-41
2023/04/08 07:33:03;;;;;;;1.20;1.10;;;;;;;;;;5053066;28;20128;-42
2023/04/08 07:35:28;;;;;;;3.97;1.35;;;;;;;;;;5055579;28;20045;-42
2023/04/08 07:37:54;;;;;;;6.63;1.38;;;;;;;;;;5041907;28;20039;-45
2023/04/08 07:40:20;;;;;;;2.33;1.13;;;;;;;;;;5043150;28;20358;-44
2023/04/08 07:42:46;;;;;;;1.00;1.00;;;;;;;;;;5035514;28;20436;-41
2023/04/08 07:45:11;;;;;;;2.08;0.93;;;;;;;;;;5036262;28;20978;-41
2023/04/08 07:47:36;;;;;;;1.75;1.05;;;;;;;;;;5033368;28;20126;-41
2023/04/08 07:50:02;;;;;;;0.60;0.60;;;;;;;;;;5039524;28;20021;-40
2023/04/08 07:52:31;;;;;;;3.00;1.25;;;;;;;;;;5045247;28;20513;-42
2023/04/08 07:54:56;;;;;;;4.55;1.67;;;;;;;;;;5043699;28;20116;-41
2023/04/08 07:57:22;;;;;;;2.45;1.75;;;;;;;;;;5049518;28;20536;-41
2023/04/08 07:59:47;;;;;;;4.65;2.10;;;;;;;;;;5042533;28;20025;-41
2023/04/08 08:02:13;;;;;;;6.30;2.33;;;;;;;;;;5043731;28;20506;-41
2023/04/08 08:04:38;;;;;;;1.73;1.63;;;;;;;;;;5047286;28;20541;-45
2023/04/08 08:07:03;;;;;;;6.85;2.00;;;;;;;;;;5060202;28;20041;-45
2023/04/08 08:09:29;;;;;;;3.75;1.90;;;;;;;;;;5065233;28;20098;-41
2023/04/08 08:11:54;;;;;;;4.22;1.58;;;;;;;;;;5048015;28;20052;-45
2023/04/08 08:14:20;;;;;;;5.47;1.58;;;;;;;;;;5038653;28;20041;-48
2023/04/08 08:16:46;;;;;;;5.80;1.27;;;;;;;;;;5055979;28;20057;-41
2023/04/08 08:19:12;;;;;;;4.30;1.67;;;;;;;;;;5057759;28;20047;-41
2023/04/08 08:21:38;;;;;;;2.00;1.30;;;;;;;;;;5059100;28;20041;-44
2023/04/08 08:24:04;;;;;;;4.72;1.80;;;;;;;;;;5063111;28;20381;-41
2023/04/08 08:26:29;;;;;;;3.67;2.00;;;;;;;;;;5050784;28;20079;-42
2023/04/08 08:28:55;;;;;;;4.75;1.73;;;;;;;;;;5044758;28;20034;-40
2023/04/08 08:31:20;;;;;;;2.70;1.45;;;;;;;;;;5045542;28;20056;-42
2023/04/08 08:33:46;;;;;;;3.67;1.38;;;;;;;;;;5038141;28;20528;-43
2023/04/08 08:36:12;;;;;;;3.50;1.35;;;;;;;;;;5045784;28;20037;-43
2023/04/08 08:38:37;;;;;;;1.95;1.20;;;;;;;;;;5046482;28;20374;-43
2023/04/08 08:41:03;;;;;;;3.92;1.45;;;;;;;;;;5053099;28;20048;-41
2023/04/08 08:43:33;;;;;;;1.70;1.17;;;;;;;;;;5067588;28;20078;-41
2023/04/08 08:45:59;;;;;;;4.13;1.30;;;;;;;;;;5060939;28;20095;-41
2023/04/08 08:48:25;;;;;;;1.95;1.48;;;;;;;;;;5054231;28;20043;-41
2023/04/08 08:50:50;;;;;;;2.88;1.35;;;;;;;;;;5062422;28;20124;-38
2023/04/08 08:53:16;;;;;;;1.70;1.00;;;;;;;;;;5057559;28;20416;-43
2023/04/08 08:55:41;;;;;;;1.38;0.80;;;;;;;;;;5065383;28;20044;-41
2023/04/08 08:58:07;;;;;;;0.73;0.70;;;;;;;;;;5065958;28;21628;-41
2023/04/08 09:00:34;;;;;;;2.10;1.30;;;;;;;;;;5060175;28;20090;-41
2023/04/08 09:03:22;;;;;;;2.03;1.38;;;;;;;;;;5056128;28;20048;-42
2023/04/08 09:05:49;;;;;;;2.72;1.70;;;;;;;;;;5060908;28;20171;-42
2023/04/08 09:08:25;;;;;;;3.40;1.70;;;;;;;;;;5055260;28;20033;-40
2023/04/08 09:10:50;;;;;;;5.90;1.73;;;;;;;;;;5059602;28;20036;-42
2023/04/08 09:13:16;;;;;;;2.40;1.70;;;;;;;;;;5062935;28;20183;-42
2023/04/08 09:16:04;;;;;;;5.15;1.90;;;;;;;;;;5057386;28;20450;-41
2023/04/08 09:18:30;;;;;;;6.35;2.25;;;;;;;;;;5056818;28;20070;-49
2023/04/08 09:20:56;;;;;;;4.35;2.20;;;;;;;;;;5053622;28;20397;-44
2023/04/08 09:23:21;;;;;;;2.65;1.73;;;;;;;;;;5045726;28;20029;-42
2023/04/08 09:25:47;;;;;;;2.05;1.80;;;;;;;;;;5045320;28;20116;-43
2023/04/08 09:28:21;;;;;;;5.88;1.80;;;;;;;;;;5046772;28;20021;-44
2023/04/08 09:30:46;;;;;;;2.17;1.88;;;;;;;;;;5047689;28;20041;-41
2023/04/08 09:33:12;;;;;;;4.65;1.80;;;;;;;;;;5044564;28;20046;-41
2023/04/08 09:35:37;;;;;;;5.72;1.83;;;;;;;;;;5043520;28;20033;-44
2023/04/08 09:38:03;;;;;;;2.13;1.60;;;;;;;;;;5042490;28;20222;-42
2023/04/08 09:40:36;;;;;;;5.70;1.92;;;;;;;;;;5045860;28;20048;-45
2023/04/08 09:43:04;;;;;;;2.80;1.30;;;;;;;;;;5045162;28;20587;-44
2023/04/08 09:45:33;;;;;;;2.95;1.40;;;;;;;;;;5045896;28;20090;-49
2023/04/08 09:48:11;;;;;;;5.60;1.55;;;;;;;;;;5080211;28;20028;-49
2023/04/08 09:50:44;;;;;;;5.25;1.50;;;;;;;;;;5053440;28;20791;-47
2023/04/08 09:53:14;;;;;;;;;;;;;;;;;;5036622;28;20040;-42
2023/04/08 09:55:42;;;;;;;5.82;1.67;;;;;;;;;;5042833;28;19925;-46
2023/04/08 09:58:15;;;;;;;6.00;1.20;;;;;;;;;;5042825;28;21026;-42
2023/04/08 10:00:49;;;;;;;5.88;1.45;;;;;;;;;;5040123;28;20412;-42
2023/04/08 10:03:23;;;;;;;2.83;1.23;;;;;;;;;;5046462;28;20029;-42
2023/04/08 10:05:51;;;;;;;2.42;1.40;;;;;;;;;;5045356;28;20044;-42
2023/04/08 10:08:17;;;;;;;5.55;1.30;;;;;;;;;;5042765;28;20401;-42
2023/04/08 10:10:42;;;;;;;1.60;1.33;;;;;;;;;;5046822;28;20045;-44
2023/04/08 10:13:08;;;;;;;1.55;1.27;;;;;;;;;;5045525;28;20052;-44
2023/04/08 10:15:36;;;;;;;2.63;1.55;;;;;;;;;;5040521;28;20601;-45
2023/04/08 10:18:05;;;;;;;1.63;1.13;;;;;;;;;;5059519;28;20032;-44
2023/04/08 10:20:33;;;;;;;2.25;1.10;;;;;;;;;;5055846;28;20041;-43
2023/04/08 10:23:02;;;;;;;1.30;0.88;;;;;;;;;;5041001;28;20715;-50
2023/04/08 10:25:37;;;;;;;5.40;1.15;;;;;;;;;;5042880;28;20124;-44
2023/04/08 10:28:11;;;;;;;1.65;1.10;;;;;;;;;;5044668;28;20037;-44
2023/04/08 10:30:37;;;;;;;3.78;1.05;;;;;;;;;;5045738;28;20071;-45
2023/04/08 10:33:19;;;;;;;1.55;1.10;;;;;;;;;;5058112;28;20075;-51
2023/04/08 10:35:52;;;;;;;4.90;1.17;;;;;;;;;;5053763;28;20478;-48
2023/04/08 10:38:18;;;;;;;2.00;1.05;;;;;;;;;;5068028;28;20044;-45
2023/04/08 10:40:44;;;;;;;1.02;1.02;;;;;;;;;;5057743;28;20041;-45
2023/04/08 10:43:12;;;;;;;2.58;1.10;;;;;;;;;;5042666;28;20055;-42
2023/04/08 10:45:38;;;;;;;2.28;1.13;;;;;;;;;;5046081;28;20044;-48
2023/04/08 10:48:23;;;;;;;1.35;1.20;;;;;;;;;;5048182;28;20041;-43
2023/04/08 10:51:05;;;;;;;0.95;0.88;;;;;;;;;;5043590;28;20044;-46
2023/04/08 10:53:32;;;;;;;1.83;1.00;;;;;;;;;;5047279;28;20017;-48
2023/04/08 10:56:07;;;;;;;1.10;1.00;;;;;;;;;;5044127;28;20446;-44
2023/04/08 10:58:35;;;;;;;1.23;1.08;;;;;;;;;;5042895;28;20036;-41
2023/04/08 11:01:05;;;;;;;1.92;1.27;;;;;;;;;;5045521;28;20037;-48
2023/04/08 11:03:32;;;;;;;3.78;1.95;;;;;;;;;;5046347;28;20028;-41
2023/04/08 11:05:58;;;;;;;4.10;2.70;;;;;;;;;;5049948;28;20045;-47
2023/04/08 11:08:28;;;;;;;1.73;1.15;;;;;;;;;;5047573;28;20111;-45
2023/04/08 11:10:54;;;;;;;1.92;0.98;;;;;;;;;;5045179;28;20094;-43
2023/04/08 11:13:20;;;;;;;4.28;1.02;;;;;;;;;;5044598;28;20040;-50
2023/04/08 11:15:45;;;;;;;1.20;0.80;;;;;;;;;;5042739;28;20045;-47
2023/04/08 11:18:11;;;;;;;1.05;1.00;;;;;;;;;;5045133;28;20028;-41
2023/04/08 11:20:37;;;;;;;3.20;1.42;;;;;;;;;;5044831;28;20029;-42
2023/04/08 11:23:02;;;;;;;1.67;1.17;;;;;;;;;;5041027;28;20032;-43
2023/04/08 11:25:28;;;;;;;2.08;1.17;;;;;;;;;;5039195;28;20045;-40
2023/04/08 11:27:54;;;;;;;3.47;1.30;;;;;;;;;;5041626;28;20037;-42
2023/04/08 11:30:20;;;;;;;3.25;1.10;;;;;;;;;;5047432;28;20029;-41
2023/04/08 11:32:46;;;;;;;1.25;1.08;;;;;;;;;;5046948;28;20021;-45
2023/04/08 11:35:11;;;;;;;1.25;0.98;;;;;;;;;;5044537;28;20052;-41
2023/04/08 11:37:38;;;;;;;3.40;1.10;;;;;;;;;;5045126;28;20493;-41
2023/04/08 11:40:09;;;;;;;4.53;1.15;;;;;;;;;;5039872;28;20041;-41
2023/04/08 11:42:34;;;;;;;1.70;1.10;;;;;;;;;;5045044;28;20044;-42
2023/04/08 11:45:00;;;;;;;1.83;1.27;;;;;;;;;;5043775;28;20382;-42
2023/04/08 11:47:32;;;;;;;3.10;1.10;;;;;;;;;;5064439;28;20033;-47
2023/04/08 11:49:58;;;;;;;1.90;0.90;;;;;;;;;;5065427;28;20029;-42
2023/04/08 11:52:47;;;;;;;1.27;1.00;;;;;;;;;;5048570;28;20045;-41
2023/04/08 11:55:30;;;;;;;1.02;0.93;;;;;;;;;;5044023;28;20037;-41
2023/04/08 11:58:00;;;;;;;4.65;0.90;;;;;;;;;;5046910;28;20431;-42
2023/04/08 12:00:26;;;;;;;1.42;1.30;;;;;;;;;;5046519;28;20045;-41
2023/04/08 12:02:52;;;;;;;5.75;1.25;;;;;;;;;;5047690;28;20078;-42
2023/04/08 12:05:19;;;;;;;4.72;1.60;;;;;;;;;;5048569;28;20024;-41
2023/04/08 12:07:44;;;;;;;2.35;0.85;;;;;;;;;;5058747;28;20056;-41
2023/04/08 12:10:10;;;;;;;1.00;0.93;;;;;;;;;;5061770;28;20524;-42
2023/04/08 12:12:37;;;;;;;2.95;0.98;;;;;;;;;;5062959;28;20048;-43
2023/04/08 12:15:03;;;;;;;1.55;0.95;;;;;;;;;;5057153;28;20126;-42
2023/04/08 12:17:28;;;;;;;5.60;0.88;;;;;;;;;;5060133;28;20537;-41
2023/04/08 12:19:53;;;;;;;3.38;0.90;;;;;;;;;;5059174;28;20087;-47
2023/04/08 12:22:19;;;;;;;2.17;1.08;;;;;;;;;;5057919;28;20111;-44
2023/04/08 12:24:44;;;;;;;2.08;0.85;;;;;;;;;;5060488;28;20048;-41
2023/04/08 12:27:10;;;;;;;1.40;1.10;;;;;;;;;;5062032;28;20076;-41
2023/04/08 12:29:35;;;;;;;1.73;0.82;;;;;;;;;;5063435;28;20162;-42
2023/04/08 12:32:03;;;;;;;1.42;1.00;;;;;;;;;;5057230;28;20090;-41
2023/04/08 12:34:28;;;;;;;2.05;0.70;;;;;;;;;;5057390;28;20033;-43
2023/04/08 12:36:54;;;;;;;0.82;0.80;;;;;;;;;;5059181;28;20044;-44
2023/04/08 12:39:21;;;;;;;1.25;0.60;;;;;;;;;;5060698;28;20020;-41
2023/04/08 12:41:46;;;;;;;0.70;0.70;;;;;;;;;;5062795;28;20404;-41
2023/04/08 12:44:12;;;;;;;1.50;0.70;;;;;;;;;;5063517;28;20029;-42
2023/04/08 12:46:37;;;;;;;0.70;0.70;;;;;;;;;;5064640;28;20490;-42
2023/04/08 12:49:02;;;;;;;0.98;0.77;;;;;;;;;;5061963;28;20124;-41
2023/04/08 12:51:28;;;;;;;2.10;0.90;;;;;;;;;;5063757;28;20493;-42
2023/04/08 12:53:53;;;;;;;0.95;0.75;;;;;;;;;;5059643;28;20509;-42
2023/04/08 12:56:20;;;;;;;2.22;0.90;;;;;;;;;;5061717;28;20064;-42
2023/04/08 12:58:45;;;;;;;0.80;0.80;;;;;;;;;;5059599;28;20915;-43
2023/04/08 13:01:11;;;;;;;1.17;1.08;;;;;;;;;;5059710;28;20036;-42
2023/04/08 13:03:36;;;;;;;0.70;0.70;;;;;;;;;;5060275;28;20440;-44
2023/04/08 13:06:02;;;;;;;1.27;0.90;;;;;;;;;;5064700;28;20044;-42
2023/04/08 13:08:28;;;;;;;1.25;0.80;;;;;;;;;;5056982;28;20040;-41
2023/04/08 13:10:54;;;;;;;0.80;0.80;;;;;;;;;;5060991;28;20497;-41
2023/04/08 13:13:19;;;;;;;2.35;1.08;;;;;;;;;;5058767;28;20106;-41
2023/04/08 13:15:45;;;;;;;1.27;0.80;;;;;;;;;;5065969;28;20404;-41
2023/04/08 13:18:10;;;;;;;2.00;0.52;;;;;;;;;;5059321;28;20042;-41
2023/04/08 13:20:36;;;;;;;3.20;0.77;;;;;;;;;;5058433;28;20163;-42
2023/04/08 13:23:01;;;;;;;1.42;0.98;;;;;;;;;;5063800;28;20036;-42
2023/04/08 13:25:27;;;;;;;1.83;0.90;;;;;;;;;;5062027;28;20067;-42
2023/04/08 13:27:52;;;;;;;0.65;0.65;;;;;;;;;;5059012;28;20032;-44
2023/04/08 13:30:18;;;;;;;1.65;1.45;;;;;;;;;;5058464;28;20055;-44
2023/04/08 13:32:44;;;;;;;1.52;1.38;;;;;;;;;;5059024;28;20039;-42
2023/04/08 13:35:09;;;;;;;1.95;1.30;;;;;;;;;;5060456;28;20036;-42
2023/04/08 13:37:35;;;;;;;3.17;2.40;;;;;;;;;;5057945;28;20699;-42
2023/04/08 13:40:01;;;;;;;1.65;1.33;;;;;;;;;;5063611;28;20029;-43
2023/04/08 13:42:26;;;;;;;3.30;1.00;;;;;;;;;;5058756;28;20071;-41
2023/04/08 13:44:51;;;;;;;2.50;0.80;;;;;;;;;;5060075;28;20074;-41
2023/04/08 13:47:17;;;;;;;2.13;0.80;;;;;;;;;;5064255;28;20086;-43
2023/04/08 13:49:42;;;;;;;1.65;0.90;;;;;;;;;;5064335;28;20036;-44
2023/04/08 13:52:08;;;;;;;1.25;0.93;;;;;;;;;;5059816;28;20032;-42
2023/04/08 13:54:33;;;;;;;2.28;1.65;;;;;;;;;;5058732;28;20447;-43
2023/04/08 13:57:00;;;;;;;2.03;1.00;;;;;;;;;;5057409;28;20037;-41
2023/04/08 13:59:25;;;;;;;2.22;1.40;;;;;;;;;;5056267;28;20606;-42
2023/04/08 14:01:52;;;;;;;5.30;1.25;;;;;;;;;;5054161;28;20165;-41
2023/04/08 14:04:19;;;;;;;2.00;1.20;;;;;;;;;;5051927;28;20037;-42
2023/04/08 14:06:45;;;;;;;1.67;1.48;;;;;;;;;;5056800;28;21693;-44
2023/04/08 14:09:11;;;;;;;4.03;1.73;;;;;;;;;;5060789;28;20112;-45
2023/04/08 14:11:36;;;;;;;5.05;1.92;;;;;;;;;;5048575;28;20067;-42
2023/04/08 14:14:02;;;;;;;3.20;1.65;;;;;;;;;;5039121;28;20069;-42
2023/04/08 14:16:29;;;;;;;6.20;2.33;;;;;;;;;;5047791;28;20067;-42
2023/04/08 14:18:55;;;;;;;5.40;1.95;;;;;;;;;;5049969;28;20450;-42
2023/04/08 14:21:20;;;;;;;2.83;1.50;;;;;;;;;;5053311;28;20071;-43
2023/04/08 14:23:46;;;;;;;2.25;1.70;;;;;;;;;;5066545;28;20024;-46
2023/04/08 14:26:11;;;;;;;6.45;2.00;;;;;;;;;;5055842;28;20476;-44
2023/04/08 14:28:37;;;;;;;6.32;1.90;;;;;;;;;;5054322;28;20494;-43
2023/04/08 14:31:03;;;;;;;2.72;2.00;;;;;;;;;;5054062;28;20044;-42
2023/04/08 14:33:29;;;;;;;3.10;1.73;;;;;;;;;;5051143;28;20029;-41
2023/04/08 14:35:54;;;;;;;7.05;2.20;;;;;;;;;;5050077;28;20037;-41
2023/04/08 14:38:20;;;;;;;7.25;2.10;;;;;;;;;;5047567;28;20029;-41
2023/04/08 14:40:45;;;;;;;2.40;1.55;;;;;;;;;;5046428;28;20502;-42